Time;durP1;ratioP1;P1;durP2;ratioP2;P2;SDS_P1;SDS_P2;PMS_P1;PMS_P2;Temp;Humidity;BMP_temperature;BMP_pressure;BME280_temperature;BME280_humidity;BME280_pressure;Samples;Min_cycle;Max_cycle;Signal;HPM_P1;HPM_P2
2022/07/24 00:02:16;;;;;;;11.88;9.02;;;;;;;20.96;58.29;101804.53;6242213;23;20085;-68
2022/07/24 00:04:41;;;;;;;10.18;9.15;;;;;;;20.92;58.20;101808.25;6243448;23;20102;-68
2022/07/24 00:07:06;;;;;;;10.73;9.63;;;;;;;20.95;58.07;101807.66;6244206;23;20015;-68
2022/07/24 00:09:31;;;;;;;11.32;10.00;;;;;;;20.95;58.11;101807.66;6243215;23;20038;-68
2022/07/24 00:11:58;;;;;;;12.13;10.40;;;;;;;20.92;58.13;101809.09;6244377;23;20018;-68
2022/07/24 00:14:23;;;;;;;12.75;11.23;;;;;;;20.88;58.38;101807.16;6244178;23;20027;-68
2022/07/24 00:16:48;;;;;;;14.50;11.60;;;;;;;20.86;58.44;101807.44;6243524;23;20007;-68
2022/07/24 00:19:14;;;;;;;11.73;10.52;;;;;;;20.86;58.13;101800.97;6244166;23;20011;-68
2022/07/24 00:21:39;;;;;;;12.30;9.38;;;;;;;20.87;58.31;101792.22;6244181;23;19996;-67
2022/07/24 00:24:05;;;;;;;10.20;9.18;;;;;;;20.86;58.42;101793.34;6243543;23;20087;-68
2022/07/24 00:26:30;;;;;;;12.65;9.68;;;;;;;20.86;58.40;101792.50;6243766;23;20781;-68
2022/07/24 00:28:55;;;;;;;10.35;9.10;;;;;;;20.79;58.53;101799.38;6244188;23;20415;-68
2022/07/24 00:31:21;;;;;;;11.25;10.00;;;;;;;20.79;58.39;101788.06;6243483;23;20008;-68
2022/07/24 00:33:48;;;;;;;10.13;9.10;;;;;;;20.77;58.71;101801.63;6244677;23;20008;-68
2022/07/24 00:36:13;;;;;;;10.15;8.98;;;;;;;20.76;58.48;101791.50;6244261;23;20011;-68
2022/07/24 00:38:38;;;;;;;11.23;9.10;;;;;;;20.76;58.60;101793.47;6242675;23;20001;-68
2022/07/24 00:41:05;;;;;;;10.98;8.50;;;;;;;20.67;58.87;101796.13;6244609;23;20008;-68
2022/07/24 00:43:31;;;;;;;9.88;8.35;;;;;;;20.71;58.44;101791.56;6242667;23;20032;-68
2022/07/24 00:45:56;;;;;;;15.05;8.48;;;;;;;20.71;58.37;101797.19;6245222;23;20058;-68
2022/07/24 00:48:22;;;;;;;10.38;8.43;;;;;;;20.71;58.49;101797.19;6246499;23;20004;-69
2022/07/24 00:50:47;;;;;;;9.00;8.20;;;;;;;20.66;58.71;101794.41;6244930;23;20038;-68
2022/07/24 00:53:14;;;;;;;9.13;7.95;;;;;;;20.71;58.46;101794.38;6246336;23;20031;-68
2022/07/24 00:55:40;;;;;;;9.27;8.27;;;;;;;20.67;58.28;101792.44;6245526;23;20429;-67
2022/07/24 00:58:05;;;;;;;8.27;7.28;;;;;;;20.73;58.08;101792.09;6245104;23;20049;-68
2022/07/24 01:00:30;;;;;;;9.23;7.38;;;;;;;20.67;58.10;101792.44;6245600;23;20008;-68
2022/07/24 01:02:56;;;;;;;9.95;8.00;;;;;;;20.71;58.13;101788.72;6246100;23;20329;-68
2022/07/24 01:05:22;;;;;;;9.20;7.90;;;;;;;20.72;58.09;101793.22;6244283;23;20079;-68
2022/07/24 01:07:47;;;;;;;8.32;7.45;;;;;;;20.73;57.92;101788.44;6246562;23;20010;-68
2022/07/24 01:10:13;;;;;;;11.85;7.90;;;;;;;20.75;57.81;101789.81;6245119;23;20374;-68
2022/07/24 01:12:39;;;;;;;9.20;7.55;;;;;;;;;;6245223;23;20078;-68
2022/07/24 01:15:07;;;;;;;8.23;7.40;;;;;;;20.72;57.83;101781.94;6244769;23;20067;-68
2022/07/24 01:17:34;;;;;;;8.40;7.57;;;;;;;20.74;57.74;101779.66;6246469;23;20027;-68
2022/07/24 01:20:00;;;;;;;9.18;7.60;;;;;;;20.66;58.05;101783.13;6245267;23;20004;-68
2022/07/24 01:22:27;;;;;;;8.10;7.30;;;;;;;20.69;57.81;101771.25;6245088;23;20031;-68
2022/07/24 01:24:54;;;;;;;8.45;7.38;;;;;;;20.66;57.63;101783.13;6244562;23;20363;-68
2022/07/24 01:27:20;;;;;;;9.00;7.68;;;;;;;20.63;57.85;101772.44;6245514;23;20004;-68
2022/07/24 01:29:46;;;;;;;8.32;7.38;;;;;;;20.67;57.69;101779.19;6245875;23;20004;-68
2022/07/24 01:32:11;;;;;;;9.98;7.75;;;;;;;20.62;57.43;101778.38;6245260;23;20019;-68
2022/07/24 01:34:36;;;;;;;10.25;7.70;;;;;;;20.63;57.44;101783.72;6244822;23;20000;-68
2022/07/24 01:37:02;;;;;;;8.48;7.47;;;;;;;20.64;57.25;101774.13;6246293;23;20000;-68
2022/07/24 01:39:27;;;;;;;9.05;7.45;;;;;;;20.59;57.20;101777.88;6245841;23;20011;-67
2022/07/24 01:41:53;;;;;;;10.82;8.00;;;;;;;20.62;57.04;101776.41;6244161;23;20416;-68
2022/07/24 01:44:18;;;;;;;9.45;8.38;;;;;;;20.66;57.06;101779.47;6246302;23;20036;-68
2022/07/24 01:46:44;;;;;;;10.52;7.65;;;;;;;20.65;56.90;101778.63;6243880;23;20008;-68
2022/07/24 01:49:09;;;;;;;10.27;8.10;;;;;;;20.64;57.10;101776.97;6244267;23;20424;-68
2022/07/24 01:51:35;;;;;;;10.70;8.00;;;;;;;20.59;57.14;101775.03;6244648;23;20027;-68
2022/07/24 01:54:02;;;;;;;10.07;7.85;;;;;;;20.58;57.42;101772.50;6244123;23;20000;-68
2022/07/24 01:56:28;;;;;;;10.10;8.95;;;;;;;20.57;57.28;101766.03;6245126;23;20087;-68
2022/07/24 01:58:53;;;;;;;10.98;8.95;;;;;;;20.57;57.50;101773.66;6246044;23;20031;-68
2022/07/24 02:01:18;;;;;;;13.13;10.15;;;;;;;20.54;57.74;101775.06;6244743;23;20003;-68
2022/07/24 02:03:44;;;;;;;15.30;11.02;;;;;;;20.55;57.61;101773.94;6244923;23;20012;-69
2022/07/24 02:06:09;;;;;;;12.43;11.13;;;;;;;20.53;57.70;101770.56;6245804;23;20012;-68
2022/07/24 02:08:34;;;;;;;16.88;12.85;;;;;;;20.51;57.48;101769.19;6244171;23;20110;-68
2022/07/24 02:11:00;;;;;;;13.63;12.15;;;;;;;20.48;58.09;101764.97;6244241;23;20013;-68
2022/07/24 02:13:25;;;;;;;21.88;12.70;;;;;;;20.45;58.07;101765.56;6245988;23;20004;-68
2022/07/24 02:15:51;;;;;;;13.10;10.82;;;;;;;20.41;58.29;101769.28;6244451;23;20028;-68
2022/07/24 02:18:17;;;;;;;13.68;10.95;;;;;;;20.41;58.39;101766.44;6245768;23;20490;-68
2022/07/24 02:20:42;;;;;;;12.13;10.85;;;;;;;20.30;58.77;101763.72;6244346;23;20431;-68
2022/07/24 02:23:07;;;;;;;14.43;10.73;;;;;;;20.31;58.96;101770.19;6244157;23;20051;-68
2022/07/24 02:25:32;;;;;;;13.88;10.60;;;;;;;20.29;58.95;101767.69;6245677;23;20005;-68
2022/07/24 02:27:58;;;;;;;12.02;10.80;;;;;;;20.31;58.56;101765.41;6245731;23;20057;-68
2022/07/24 02:30:24;;;;;;;11.63;10.23;;;;;;;20.26;58.93;101762.63;6243944;23;20007;-68
2022/07/24 02:32:49;;;;;;;12.23;10.52;;;;;;;20.27;59.02;101764.31;6245641;23;20011;-68
2022/07/24 02:35:15;;;;;;;11.52;10.30;;;;;;;20.21;58.93;101765.50;6245356;23;20007;-68
2022/07/24 02:37:42;;;;;;;12.13;10.50;;;;;;;20.19;58.85;101773.41;6243647;23;20038;-68
2022/07/24 02:40:09;;;;;;;11.25;10.13;;;;;;;20.17;58.90;101764.41;6245351;23;20067;-68
2022/07/24 02:42:35;;;;;;;11.13;9.23;;;;;;;20.18;58.86;101766.09;6244812;23;20320;-68
2022/07/24 02:45:00;;;;;;;12.13;9.93;;;;;;;20.14;59.07;101770.66;6244319;23;20083;-68
2022/07/24 02:47:25;;;;;;;10.82;9.73;;;;;;;20.14;59.25;101776.28;6245069;23;20035;-68
2022/07/24 02:49:51;;;;;;;11.27;10.10;;;;;;;20.16;59.24;101784.44;6245206;23;20008;-68
2022/07/24 02:52:16;;;;;;;12.95;10.27;;;;;;;20.13;59.14;101791.53;6243532;23;20340;-68
2022/07/24 02:54:41;;;;;;;10.95;9.85;;;;;;;20.14;58.67;101778.25;6243992;23;20008;-68
2022/07/24 02:57:06;;;;;;;13.40;11.02;;;;;;;20.08;59.37;101783.94;6243478;23;20091;-68
2022/07/24 02:59:32;;;;;;;12.45;10.32;;;;;;;20.15;59.07;101782.75;6245007;23;20008;-68
2022/07/24 03:01:57;;;;;;;12.50;11.18;;;;;;;20.10;58.99;101775.19;6244176;23;20079;-68
2022/07/24 03:04:23;;;;;;;11.13;10.00;;;;;;;20.12;59.06;101775.72;6244679;23;20004;-68
2022/07/24 03:06:48;;;;;;;13.20;10.82;;;;;;;20.08;59.33;101774.63;6244408;23;20004;-68
2022/07/24 03:09:13;;;;;;;13.05;11.68;;;;;;;19.99;59.50;101773.59;6244878;23;20010;-68
2022/07/24 03:11:39;;;;;;;13.77;11.40;;;;;;;20.02;59.25;101771.03;6243432;23;20073;-68
2022/07/24 03:14:04;;;;;;;17.85;12.65;;;;;;;20.00;59.37;101769.63;6245153;23;20004;-68
2022/07/24 03:16:29;;;;;;;17.33;12.55;;;;;;;19.95;59.64;101758.41;6244567;23;20000;-68
2022/07/24 03:18:55;;;;;;;14.85;13.30;;;;;;;19.94;59.72;101768.00;6243351;23;20000;-68
2022/07/24 03:21:20;;;;;;;16.15;12.98;;;;;;;19.91;59.70;101775.06;6243521;23;20778;-68
2022/07/24 03:23:45;;;;;;;16.10;14.43;;;;;;;19.88;60.07;101766.34;6243071;23;20012;-68
2022/07/24 03:26:11;;;;;;;21.17;15.38;;;;;;;19.83;60.49;101765.25;6244179;23;20012;-68
2022/07/24 03:28:36;;;;;;;17.30;14.32;;;;;;;19.88;60.12;101753.09;6244498;23;20038;-68
2022/07/24 03:31:01;;;;;;;19.85;15.85;;;;;;;19.81;60.47;101764.72;6244200;23;20435;-68
2022/07/24 03:33:27;;;;;;;17.92;15.57;;;;;;;19.77;60.32;101762.78;6243732;23;20421;-68
2022/07/24 03:35:53;;;;;;;17.38;15.45;;;;;;;19.79;60.46;101772.59;6244527;23;20016;-68
2022/07/24 03:38:19;;;;;;;17.58;15.15;;;;;;;19.78;60.70;101770.09;6245228;23;20008;-68
2022/07/24 03:40:44;;;;;;;17.95;15.98;;;;;;;19.76;60.84;101773.19;6243217;23;20379;-68
2022/07/24 03:43:09;;;;;;;19.83;16.50;;;;;;;19.80;60.25;101767.81;6244902;23;20004;-68
2022/07/24 03:45:35;;;;;;;21.00;16.80;;;;;;;19.73;60.68;101770.97;6245160;23;20467;-68
2022/07/24 03:48:00;;;;;;;19.60;17.25;;;;;;;19.74;60.95;101767.03;6243334;23;20014;-68
2022/07/24 03:50:25;;;;;;;19.10;16.95;;;;;;;19.75;60.83;101756.59;6243611;23;20474;-68
2022/07/24 03:52:51;;;;;;;20.90;17.08;;;;;;;19.68;61.18;101758.91;6245036;23;20027;-68
2022/07/24 03:55:16;;;;;;;19.13;17.02;;;;;;;19.72;60.81;101758.00;6242965;23;20004;-67
2022/07/24 03:57:41;;;;;;;19.52;17.48;;;;;;;19.67;61.25;101755.25;6245081;23;20008;-68
2022/07/24 04:00:08;;;;;;;20.73;18.08;;;;;;;19.61;61.15;101756.41;6242933;23;20031;-68
2022/07/24 04:02:34;;;;;;;19.65;17.25;;;;;;;19.64;61.08;101757.78;6242912;23;20008;-68
2022/07/24 04:04:59;;;;;;;19.92;17.77;;;;;;;19.64;61.41;101754.97;6244700;23;20005;-68
2022/07/24 04:07:24;;;;;;;22.58;19.42;;;;;;;19.59;61.46;101759.47;6243318;23;20077;-68
2022/07/24 04:09:49;;;;;;;21.27;19.00;;;;;;;19.60;61.56;101758.34;6242503;23;20004;-68
2022/07/24 04:12:15;;;;;;;24.35;19.83;;;;;;;19.58;61.61;101757.81;6244362;23;20004;-68
2022/07/24 04:14:40;;;;;;;24.83;21.20;;;;;;;19.56;61.82;101747.97;6243373;23;20008;-68
2022/07/24 04:17:05;;;;;;;26.45;20.83;;;;;;;19.50;62.12;101752.78;6244723;23;20480;-68
2022/07/24 04:19:31;;;;;;;24.00;21.35;;;;;;;19.50;62.06;101757.59;6242994;23;20000;-68
2022/07/24 04:21:56;;;;;;;25.92;20.65;;;;;;;19.51;62.20;101753.63;6243086;23;20004;-68
2022/07/24 04:24:22;;;;;;;27.15;22.20;;;;;;;19.51;62.15;101750.81;6244754;23;20011;-68
2022/07/24 04:26:47;;;;;;;26.48;21.85;;;;;;;19.49;62.30;101764.34;6243722;23;20066;-68
2022/07/24 04:29:13;;;;;;;26.13;22.38;;;;;;;19.50;62.65;101766.03;6242920;23;20019;-68
2022/07/24 04:31:38;;;;;;;25.30;22.55;;;;;;;19.53;62.51;101759.78;6242775;23;20012;-68
2022/07/24 04:34:03;;;;;;;32.78;23.75;;;;;;;19.50;62.67;101763.22;6244711;23;20421;-68
2022/07/24 04:36:29;;;;;;;26.30;23.50;;;;;;;19.58;62.67;101768.22;6243114;23;20015;-67
2022/07/24 04:38:54;;;;;;;32.35;25.95;;;;;;;19.58;62.41;101771.06;6244138;23;20080;-67
2022/07/24 04:41:19;;;;;;;35.08;26.15;;;;;;;19.57;62.58;101770.22;6244538;23;20008;-67
2022/07/24 04:43:44;;;;;;;30.10;25.63;;;;;;;19.54;63.12;101773.59;6243281;23;20035;-67
2022/07/24 04:46:10;;;;;;;36.13;27.90;;;;;;;19.55;62.81;101777.25;6243451;23;20038;-68
2022/07/24 04:48:35;;;;;;;33.13;27.50;;;;;;;19.56;63.17;101776.13;6243268;23;20321;-67
2022/07/24 04:51:00;;;;;;;30.27;26.90;;;;;;;19.48;63.56;101773.91;6242590;23;20051;-67
2022/07/24 04:53:26;;;;;;;36.38;28.50;;;;;;;19.53;63.35;101776.69;6244023;23;20099;-68
2022/07/24 04:55:51;;;;;;;37.83;29.63;;;;;;;19.56;63.48;101773.31;6243799;23;20012;-67
2022/07/24 04:58:16;;;;;;;36.67;28.85;;;;;;;19.52;63.74;101767.41;6243158;23;20004;-68
2022/07/24 05:00:42;;;;;;;35.78;30.40;;;;;;;19.53;63.72;101771.06;6243641;23;20071;-68
2022/07/24 05:03:07;;;;;;;39.03;30.50;;;;;;;19.54;63.68;101776.41;6243201;23;20332;-68
2022/07/24 05:05:32;;;;;;;37.97;30.05;;;;;;;19.56;63.67;101770.50;6242573;23;20007;-68
2022/07/24 05:07:57;;;;;;;39.38;31.42;;;;;;;19.57;63.70;101770.22;6243834;23;20031;-68
2022/07/24 05:10:23;;;;;;;41.10;31.35;;;;;;;19.64;63.53;101763.44;6243450;23;20040;-68
2022/07/24 05:12:48;;;;;;;36.92;30.67;;;;;;;19.60;63.90;101757.50;6242364;23;20079;-68
2022/07/24 05:15:13;;;;;;;41.55;31.48;;;;;;;19.68;63.65;101764.53;6243801;23;20495;-67
2022/07/24 05:17:38;;;;;;;36.97;29.67;;;;;;;19.65;63.75;101767.91;6243236;23;20012;-68
2022/07/24 05:20:06;;;;;;;36.47;29.83;;;;;;;19.65;63.77;101780.06;6242994;23;20039;-68
2022/07/24 05:22:31;;;;;;;36.38;29.48;;;;;;;19.68;63.91;101770.16;6243322;23;20012;-68
2022/07/24 05:24:57;;;;;;;34.40;30.20;;;;;;;19.67;63.80;101774.13;6241523;23;20447;-67
2022/07/24 05:27:22;;;;;;;37.42;29.63;;;;;;;19.71;63.83;101776.06;6243587;23;20007;-67
2022/07/24 05:29:47;;;;;;;38.30;30.55;;;;;;;19.70;63.84;101774.38;6242789;23;20054;-68
2022/07/24 05:32:13;;;;;;;39.20;30.98;;;;;;;19.70;63.78;101779.16;6244029;23;20008;-68
2022/07/24 05:34:38;;;;;;;35.03;30.08;;;;;;;19.75;63.66;101784.75;6245877;23;20069;-68
2022/07/24 05:37:04;;;;;;;41.90;31.05;;;;;;;19.76;63.69;101792.06;6245748;23;20004;-68
2022/07/24 05:39:29;;;;;;;42.00;30.73;;;;;;;19.72;63.89;101782.53;6244828;23;20014;-68
2022/07/24 05:41:54;;;;;;;36.53;30.30;;;;;;;19.82;63.39;101790.91;6243986;23;20064;-68
2022/07/24 05:44:20;;;;;;;35.67;29.73;;;;;;;19.80;63.38;101793.16;6246256;23;20375;-67
2022/07/24 05:46:45;;;;;;;35.75;28.95;;;;;;;19.92;62.95;101795.63;6244585;23;20091;-67
2022/07/24 05:49:11;;;;;;;35.30;28.00;;;;;;;19.96;62.73;101791.91;6245547;23;20023;-67
2022/07/24 05:51:36;;;;;;;36.63;27.80;;;;;;;19.99;62.58;101791.34;6245343;23;20012;-68
2022/07/24 05:54:02;;;;;;;37.95;28.08;;;;;;;20.02;62.40;101784.28;6243968;23;20035;-68
2022/07/24 05:56:28;;;;;;;33.83;26.67;;;;;;;20.05;62.03;101789.34;6244913;23;20345;-67
2022/07/24 05:58:53;;;;;;;30.63;25.30;;;;;;;20.06;61.54;101789.03;6245343;23;20004;-68
2022/07/24 06:01:18;;;;;;;30.90;25.60;;;;;;;20.16;60.95;101782.47;6244375;23;20409;-68
2022/07/24 06:03:44;;;;;;;36.33;25.85;;;;;;;20.23;60.88;101790.56;6245501;23;20043;-68
2022/07/24 06:06:09;;;;;;;34.17;25.98;;;;;;;20.17;61.21;101795.44;6245764;23;20008;-67
2022/07/24 06:08:34;;;;;;;25.90;23.10;;;;;;;20.30;60.60;101794.72;6242802;23;20008;-68
2022/07/24 06:10:59;;;;;;;30.17;23.38;;;;;;;20.35;60.20;101797.50;6244637;23;20011;-68
2022/07/24 06:13:25;;;;;;;28.70;23.42;;;;;;;20.39;60.28;101789.28;6246034;23;20014;-68
2022/07/24 06:15:50;;;;;;;29.02;22.38;;;;;;;20.50;60.22;101792.88;6243307;23;20542;-68
2022/07/24 06:18:15;;;;;;;26.25;23.45;;;;;;;20.53;60.10;101789.47;6245503;23;20031;-68
2022/07/24 06:20:41;;;;;;;30.67;23.50;;;;;;;20.52;59.84;101793.44;6245117;23;20013;-68
2022/07/24 06:23:06;;;;;;;27.65;22.00;;;;;;;20.65;59.50;101798.38;6244360;23;20066;-68
2022/07/24 06:25:31;;;;;;;29.00;23.08;;;;;;;20.65;59.21;101797.53;6244508;23;20012;-68
2022/07/24 06:27:57;;;;;;;29.30;23.35;;;;;;;20.67;59.46;101796.13;6245955;23;20011;-68
2022/07/24 06:30:24;;;;;;;26.67;21.75;;;;;;;20.74;59.29;101795.75;6244309;23;20048;-68
2022/07/24 06:32:54;;;;;;;30.80;22.27;;;;;;;20.78;59.16;101797.66;6245525;23;20015;-67
2022/07/24 06:35:19;;;;;;;27.73;22.65;;;;;;;20.84;58.88;101793.66;6244357;23;20007;-68
2022/07/24 06:37:44;;;;;;;25.25;21.15;;;;;;;20.92;58.73;101796.97;6244537;23;20008;-68
2022/07/24 06:40:10;;;;;;;24.83;20.85;;;;;;;20.98;58.59;101807.88;6244616;23;20015;-68
2022/07/24 06:42:36;;;;;;;21.58;17.02;;;;;;;21.04;57.85;101800.19;6243563;23;20413;-68
2022/07/24 06:45:02;;;;;;;25.77;18.88;;;;;;;21.12;58.52;101801.53;6243630;23;20031;-68
2022/07/24 06:47:27;;;;;;;22.48;18.17;;;;;;;21.19;58.48;101793.53;6244245;23;20004;-68
2022/07/24 06:49:53;;;;;;;20.65;17.50;;;;;;;21.24;58.38;101796.28;6244099;23;20435;-68
2022/07/24 06:52:19;;;;;;;21.70;17.45;;;;;;;21.28;57.69;101792.53;6243265;23;20015;-68
2022/07/24 06:54:44;;;;;;;20.08;16.85;;;;;;;21.33;57.46;101798.16;6243948;23;20088;-68
2022/07/24 06:57:09;;;;;;;23.98;18.02;;;;;;;21.36;57.65;101798.69;6242395;23;20018;-68
2022/07/24 06:59:34;;;;;;;20.42;16.42;;;;;;;21.41;56.93;101793.81;6243686;23;20443;-68
2022/07/24 07:02:00;;;;;;;18.02;14.85;;;;;;;21.48;55.33;101785.81;6243211;23;20447;-68
2022/07/24 07:04:25;;;;;;;19.85;15.40;;;;;;;21.54;56.63;101789.41;6244000;23;20008;-68
2022/07/24 07:06:50;;;;;;;17.13;14.48;;;;;;;21.59;56.79;101780.84;6244887;23;20038;-68
2022/07/24 07:09:16;;;;;;;16.95;14.25;;;;;;;21.62;56.27;101788.72;6244666;23;20004;-68
2022/07/24 07:11:41;;;;;;;16.65;13.48;;;;;;;21.67;55.88;101776.50;6243878;23;20000;-68
2022/07/24 07:14:06;;;;;;;16.48;13.05;;;;;;;21.73;56.01;101778.94;6243973;23;20027;-68
2022/07/24 07:16:32;;;;;;;18.80;13.32;;;;;;;21.77;55.04;101785.66;6243533;23;20004;-68
2022/07/24 07:18:57;;;;;;;13.43;11.45;;;;;;;21.75;53.98;101790.78;6243426;23;20099;-67
2022/07/24 07:21:22;;;;;;;13.45;10.93;;;;;;;21.86;54.38;101804.75;6242486;23;20087;-67
2022/07/24 07:23:47;;;;;;;7.30;6.60;;;;;;;21.98;55.56;101802.31;6242312;23;20092;-66
2022/07/24 07:26:13;;;;;;;7.30;5.88;;;;;;;22.15;55.70;101796.09;6240376;23;20011;-66
2022/07/24 07:28:38;;;;;;;9.15;6.85;;;;;;;22.20;54.48;101801.66;6242868;23;20015;-66
2022/07/24 07:31:03;;;;;;;6.53;5.68;;;;;;;22.30;54.53;101802.34;6242953;23;20015;-66
2022/07/24 07:33:29;;;;;;;7.95;5.20;;;;;;;22.36;53.66;101797.44;6239894;23;20016;-65
2022/07/24 07:35:54;;;;;;;7.30;5.43;;;;;;;22.44;52.25;101793.03;6239792;23;20812;-66
2022/07/24 07:38:19;;;;;;;10.05;4.90;;;;;;;22.54;51.91;101792.88;6241535;23;20061;-66
2022/07/24 07:40:45;;;;;;;7.30;5.10;;;;;;;22.60;51.03;101791.63;6240202;23;20012;-66
2022/07/24 07:43:10;;;;;;;7.13;5.15;;;;;;;22.66;51.91;101784.72;6241597;23;20439;-66
2022/07/24 07:45:36;;;;;;;5.78;4.35;;;;;;;22.69;51.46;101783.25;6241143;23;20046;-65
2022/07/24 07:48:02;;;;;;;5.57;4.35;;;;;;;22.75;51.66;101785.69;6242934;23;20000;-65
2022/07/24 07:50:27;;;;;;;5.25;3.70;;;;;;;22.79;50.44;101786.72;6243110;23;20341;-66
2022/07/24 07:52:52;;;;;;;4.45;3.70;;;;;;;22.83;49.78;101784.09;6241205;23;20007;-66
2022/07/24 07:55:18;;;;;;;3.72;3.40;;;;;;;22.91;49.55;101793.88;6240401;23;20009;-66
2022/07/24 07:57:43;;;;;;;3.70;3.38;;;;;;;22.99;48.65;101778.97;6243183;23;20008;-67
2022/07/24 08:00:11;;;;;;;3.50;3.20;;;;;;;23.05;48.25;101785.41;6242075;23;20381;-66
2022/07/24 08:02:36;;;;;;;3.50;3.20;;;;;;;23.12;48.84;101783.81;6243552;23;20420;-67
2022/07/24 08:05:01;;;;;;;4.43;3.45;;;;;;;23.24;48.13;101778.47;6242743;23;20011;-66
2022/07/24 08:07:26;;;;;;;3.50;3.13;;;;;;;23.22;46.72;101777.09;6240062;23;20008;-67
2022/07/24 08:09:52;;;;;;;5.47;3.30;;;;;;;23.28;46.17;101770.16;6240565;23;20004;-67
2022/07/24 08:12:17;;;;;;;4.53;2.92;;;;;;;23.36;45.53;101774.25;6241199;23;20042;-67
2022/07/24 08:14:42;;;;;;;3.47;3.00;;;;;;;23.42;46.08;101778.63;6241213;23;20031;-67
2022/07/24 08:17:08;;;;;;;3.72;3.05;;;;;;;23.49;46.95;101773.38;6239959;23;20382;-68
2022/07/24 08:19:33;;;;;;;7.03;3.03;;;;;;;23.50;45.94;101775.91;6240107;23;20526;-67
2022/07/24 08:21:58;;;;;;;3.10;2.80;;;;;;;23.58;48.32;101781.94;6238431;23;20008;-67
2022/07/24 08:24:23;;;;;;;4.15;2.60;;;;;;;23.58;45.88;101777.16;6240846;23;20008;-68
2022/07/24 08:26:49;;;;;;;2.97;2.63;;;;;;;23.63;45.41;101774.19;6241823;23;20012;-67
2022/07/24 08:29:15;;;;;;;5.88;2.85;;;;;;;23.72;44.94;101777.13;6240130;23;20008;-67
2022/07/24 08:31:43;;;;;;;2.90;2.60;;;;;;;23.77;44.70;101777.81;6242611;23;20088;-67
2022/07/24 08:34:09;;;;;;;6.03;2.70;;;;;;;23.85;44.93;101783.91;6241381;23;20008;-67
2022/07/24 08:36:34;;;;;;;4.43;3.03;;;;;;;23.89;44.65;101779.25;6240119;23;20004;-67
2022/07/24 08:39:00;;;;;;;2.75;2.55;;;;;;;23.90;44.48;101784.63;6242712;23;20058;-68
2022/07/24 08:41:32;;;;;;;3.00;2.50;;;;;;;23.98;45.06;101785.84;6240720;23;20436;-65
2022/07/24 08:43:57;;;;;;;5.72;2.75;;;;;;;24.03;44.80;101780.03;6241176;23;20083;-65
2022/07/24 08:46:25;;;;;;;4.57;2.85;;;;;;;24.09;45.24;101781.59;6242798;23;20317;-66
2022/07/24 08:48:51;;;;;;;4.55;3.22;;;;;;;24.18;45.06;101774.00;6238104;23;20008;-66
2022/07/24 08:51:17;;;;;;;3.67;3.08;;;;;;;24.22;45.12;101769.34;6241208;23;20015;-66
2022/07/24 08:53:43;;;;;;;3.97;3.13;;;;;;;24.24;45.31;101764.16;6242532;23;20337;-67
2022/07/24 08:56:09;;;;;;;3.92;3.20;;;;;;;24.40;44.72;101772.31;6240710;23;20016;-66
2022/07/24 08:58:37;;;;;;;3.28;2.92;;;;;;;24.42;45.09;101767.16;6241612;23;20510;-66
2022/07/24 09:01:03;;;;;;;4.38;3.08;;;;;;;24.48;45.09;101769.53;6242393;23;20298;-66
2022/07/24 09:03:28;;;;;;;3.67;3.38;;;;;;;24.51;45.05;101772.88;6240516;23;20008;-67
2022/07/24 09:05:58;;;;;;;4.07;3.45;;;;;;;24.51;45.55;101775.72;6242420;23;20086;-65
2022/07/24 09:08:24;;;;;;;4.18;3.10;;;;;;;24.58;45.20;101770.41;6241767;23;20008;-65
2022/07/24 09:11:04;;;;;;;4.50;4.10;;;;;;;24.55;45.50;101774.72;6242584;23;20004;-66
2022/07/24 09:14:29;;;;;;;4.78;3.03;;;;;;;24.68;45.67;101776.66;6241979;23;20098;-65
2022/07/24 09:16:23;;;;;;;4.35;3.15;;;;;;;24.65;45.15;101765.13;6239788;23;20043;-67
2022/07/24 09:18:51;;;;;;;4.45;3.20;;;;;;;24.66;45.45;101761.09;6241224;23;20004;-66
2022/07/24 09:21:18;;;;;;;4.75;2.97;;;;;;;24.77;45.10;101750.31;6240459;23;20083;-67
2022/07/24 09:23:44;;;;;;;4.78;3.67;;;;;;;24.82;45.20;101750.16;6242544;23;20012;-66
2022/07/24 09:26:11;;;;;;;5.25;2.90;;;;;;;24.90;45.65;101747.34;6242731;23;20294;-65
2022/07/24 09:28:54;;;;;;;3.88;3.30;;;;;;;24.97;45.77;101749.72;6242871;23;20011;-65
2022/07/24 09:31:23;;;;;;;3.90;3.47;;;;;;;24.96;45.43;101731.00;6243386;23;20405;-65
2022/07/24 09:33:49;;;;;;;3.72;2.97;;;;;;;25.02;45.38;101743.03;6242326;23;20008;-66
2022/07/24 09:36:17;;;;;;;3.88;3.47;;;;;;;25.07;44.93;101738.03;6243944;23;20324;-66
2022/07/24 09:38:50;;;;;;;4.38;2.90;;;;;;;25.15;45.69;101737.25;6242318;23;20004;-66
2022/07/24 09:41:21;;;;;;;3.63;2.95;;;;;;;25.19;45.29;101740.25;6243105;23;20000;-66
2022/07/24 09:43:57;;;;;;;2.70;2.50;;;;;;;25.20;45.50;101734.25;6244074;23;20011;-66
2022/07/24 09:46:24;;;;;;;3.78;2.45;;;;;;;25.26;44.68;101734.09;6242315;23;20060;-66
2022/07/24 09:48:58;;;;;;;3.65;2.60;;;;;;;25.31;44.61;101726.25;6241560;23;20016;-65
2022/07/24 09:51:26;;;;;;;3.00;2.67;;;;;;;25.43;44.49;101734.13;6244604;23;20091;-65
2022/07/24 09:53:57;;;;;;;2.72;2.53;;;;;;;25.38;44.33;101729.41;6242320;23;20000;-66
2022/07/24 09:56:23;;;;;;;3.20;2.90;;;;;;;25.48;45.34;101731.13;6241451;23;20016;-66
2022/07/24 09:58:52;;;;;;;3.10;2.60;;;;;;;25.52;44.71;101723.59;6243534;23;20066;-66
2022/07/24 10:01:19;;;;;;;3.60;3.10;;;;;;;25.60;44.50;101728.44;6238704;23;20008;-67
2022/07/24 10:03:47;;;;;;;3.58;3.20;;;;;;;25.54;44.29;101729.75;6242249;23;20460;-67
2022/07/24 10:06:16;;;;;;;4.28;3.03;;;;;;;25.59;44.54;101726.78;6243004;23;20012;-66
2022/07/24 10:08:43;;;;;;;3.17;2.40;;;;;;;25.62;43.76;101730.94;6244071;23;20008;-67
2022/07/24 10:11:10;;;;;;;3.20;2.50;;;;;;;25.64;42.96;101728.63;6243737;23;20016;-67
2022/07/24 10:13:36;;;;;;;4.00;2.55;;;;;;;25.76;43.58;101719.41;6243150;23;20012;-67
2022/07/24 10:16:13;;;;;;;2.75;2.55;;;;;;;25.79;43.56;101715.94;6244938;23;20109;-67
2022/07/24 10:18:52;;;;;;;3.25;2.55;;;;;;;25.83;43.63;101712.06;6239721;23;20207;-66
2022/07/24 10:21:20;;;;;;;5.32;2.75;;;;;;;25.90;43.35;101706.72;6242686;23;20098;-66
2022/07/24 10:24:06;;;;;;;2.80;2.60;;;;;;;25.93;43.79;101710.88;6242797;23;20007;-66
2022/07/24 10:26:39;;;;;;;3.35;3.05;;;;;;;25.98;43.58;101710.72;6243609;23;20062;-66
2022/07/24 10:29:18;;;;;;;3.35;2.40;;;;;;;26.01;43.91;101712.88;6243447;23;20059;-66
2022/07/24 10:31:49;;;;;;;5.53;2.75;;;;;;;26.01;42.68;101701.50;6243776;23;20008;-65
2022/07/24 10:34:24;;;;;;;3.65;2.55;;;;;;;26.06;42.97;101701.34;6243732;23;20000;-66
2022/07/24 10:37:04;;;;;;;4.53;3.10;;;;;;;26.11;43.38;101698.31;6243011;23;20536;-65
2022/07/24 10:39:55;;;;;;;4.88;3.00;;;;;;;26.11;43.29;101695.47;6241839;23;20313;-65
2022/07/24 10:42:21;;;;;;;3.27;2.97;;;;;;;26.23;42.63;101696.78;6229355;23;20038;-66
2022/07/24 10:45:18;;;;;;;3.00;2.42;;;;;;;26.22;43.01;101693.09;6244161;23;20476;-66
2022/07/24 10:47:45;;;;;;;4.15;2.63;;;;;;;26.33;41.85;101685.00;6245089;23;20012;-65
2022/07/24 10:50:11;;;;;;;2.75;2.42;;;;;;;26.39;41.95;101692.19;6241777;23;20027;-68
2022/07/24 10:52:39;;;;;;;3.35;3.05;;;;;;;26.40;41.46;101688.16;6241944;23;20003;-64
2022/07/24 10:55:23;;;;;;;2.95;2.65;;;;;;;26.45;42.21;101676.66;6240873;23;20008;-66
2022/07/24 10:58:00;;;;;;;3.53;2.50;;;;;;;26.57;40.24;101675.94;6242308;23;20352;-63
2022/07/24 11:00:37;;;;;;;3.50;3.20;;;;;;;26.57;41.08;101673.06;6243822;23;20054;-68
2022/07/24 11:03:18;;;;;;;3.10;2.47;;;;;;;26.74;40.79;101669.28;6244594;23;20395;-66
2022/07/24 11:06:05;;;;;;;4.72;2.75;;;;;;;26.70;41.12;101674.00;6243072;23;20020;-67
2022/07/24 11:08:38;;;;;;;3.65;2.80;;;;;;;26.82;40.94;101665.56;6242887;23;20008;-66
2022/07/24 11:11:21;;;;;;;3.88;2.75;;;;;;;26.80;41.64;101667.91;6244259;23;20023;-65
2022/07/24 11:13:52;;;;;;;4.55;2.88;;;;;;;26.85;41.06;101670.56;6243870;23;20000;-65
2022/07/24 11:16:23;;;;;;;3.63;2.50;;;;;;;26.85;39.98;101664.88;6242562;23;20455;-66